Bretz, West Virginia
Current Conditions -  °F | °C
As of 9:53 PM on Thursday 27 Nov 2014 (Local Time) from KMGW Reporting Station
Light Snow Light Snow  
Wind Chill: 19°   Ceiling: 1800
Heat Index: 29°   Visibility: 9mi
Dew Point: 21°   Wind: 12mph
Humidity: 72%   Direction: 260°W
Pressure: 30.24"   Gusts: NA
Location:  39.54°N, 79.8°W
Report Text: KMGW 280253Z 26010KT 9SM -SN BKN018 OVC080 M02/M06 A3024 RMK AO2 SLP252 P0000 60000 T10171061 51012
Loading
Personal Weather Stations






























Interactive Weather Map New forecast layout! Learn more

10-Day Weather Forecast

Advertisements
Track Severe Weather on mobile